Terminal Aerodrome Forecast
Issued by NWS Jackson, MS

Home | Current Version | Previous Version | Text Only | Print | Product List | Glossary On
Versions: 1 2 3 4 5 6 7 8 9 10 11 12 13 14 15 16
496
FTUS44 KJAN 211903 RRA
TAFHBG
TAF
KHBG 211903Z 2119/2218 17006KT P6SM SCT050
     FM220200 18008KT 5SM -SHRA BR VCTS BKN025CB
     FM220500 21010KT 2SM BR VCTS BKN003CB
     FM220800 21008KT P6SM OVC015
     FM221400 21011KT P6SM BKN050=

USA.gov is the U.S. government's official web portal to all federal, state and local government web resources and services.